Terminal Aerodrome Forecast
Issued by NWS

Home | Current Version | Previous Version | Text Only | Print | Product List | Glossary On
Versions: 1 2 3 4 5 6 7 8 9 10 11 12 13 14 15 16 17 18 19
000
FTUS43 KICT 231720
TAFHUT
TAF
KHUT 231720Z 2318/2418 19015G23KT P6SM FEW200
     FM240100 16010KT P6SM SKC
     FM240700 18006KT P6SM FEW200 WS020/21035KT
     FM241400 20007KT P6SM SCT200=

USA.gov is the U.S. government's official web portal to all federal, state and local government web resources and services.